Time;durP1;ratioP1;P1;durP2;ratioP2;P2;SDS_P1;SDS_P2;PMS_P1;PMS_P2;Temp;Humidity;BMP_temperature;BMP_pressure;BME280_temperature;BME280_humidity;BME280_pressure;Samples;Min_cycle;Max_cycle;Signal;HPM_P1;HPM_P2
2024/02/04 00:03:23;;;;;;;2.53;2.43;;;7.70;99.90;;;8.42;92.04;99035.34;10357431;28;20230;-64
2024/02/04 00:08:27;;;;;;;2.57;2.43;;;7.60;99.90;;;8.38;92.64;99023.06;10358839;28;20226;-64
2024/02/04 00:13:31;;;;;;;2.50;2.40;;;7.60;99.90;;;8.24;94.29;99003.19;10360829;28;20238;-64
2024/02/04 00:18:34;;;;;;;2.43;2.23;;;7.50;99.90;;;8.18;95.20;99008.63;10358272;28;20565;-64
2024/02/04 00:23:39;;;;;;;2.37;2.27;;;7.40;99.90;;;8.21;94.94;98997.81;10360887;28;20234;-64
2024/02/04 00:28:43;;;;;;;2.57;2.37;;;7.40;99.90;;;8.02;95.44;98970.81;10360241;28;20226;-64
2024/02/04 00:33:46;;;;;;;2.53;2.43;;;7.30;99.90;;;8.23;93.63;98970.84;10357755;28;20249;-64
2024/02/04 00:38:51;;;;;;;2.30;2.20;;;7.40;99.90;;;8.11;95.04;98975.78;10356031;28;20222;-64
2024/02/04 00:43:54;;;;;;;2.60;2.50;;;7.30;99.90;;;8.32;92.58;98959.75;10358128;28;20241;-65
2024/02/04 00:48:57;;;;;;;2.75;2.55;;;7.50;99.90;;;8.18;92.78;98967.00;10356712;28;20262;-64
2024/02/04 00:54:02;;;;;;;2.50;2.40;;;7.40;99.90;;;8.11;92.78;98975.78;10358405;28;20280;-64
2024/02/04 00:59:05;;;;;;;2.10;2.00;;;7.40;99.90;;;8.18;92.10;98989.94;10356473;28;20233;-64
2024/02/04 01:04:08;;;;;;;2.80;2.60;;;7.40;99.90;;;8.05;93.06;98988.91;10406427;22;20601;-67
2024/02/04 01:09:13;;;;;;;2.40;2.30;;;7.40;99.90;;;8.03;92.91;98992.97;10374524;28;20237;-66
2024/02/04 01:14:16;;;;;;;2.50;2.40;;;7.40;99.90;;;8.20;91.48;98989.28;10412963;28;20237;-66
2024/02/04 01:19:19;;;;;;;2.17;1.97;;;7.40;99.90;;;8.16;92.05;98987.28;10450360;28;20283;-66
2024/02/04 01:24:25;;;;;;;2.30;2.20;;;7.50;99.90;;;8.22;91.32;98984.34;10405629;28;20233;-66
2024/02/04 01:29:28;;;;;;;2.00;1.90;;;7.50;99.90;;;8.28;91.41;98974.66;10413343;28;20723;-66
2024/02/04 01:34:31;;;;;;;2.20;2.10;;;7.50;99.90;;;8.26;90.87;98971.09;10404278;28;20225;-66
2024/02/04 01:39:35;;;;;;;1.87;1.77;;;7.50;99.90;;;8.30;90.87;98960.41;10401640;28;20233;-66
2024/02/04 01:44:38;;;;;;;2.40;2.30;;;7.50;99.90;;;8.20;91.39;98956.19;10397198;28;20236;-66
2024/02/04 01:49:42;;;;;;;2.10;2.00;;;7.50;99.90;;;8.40;90.44;98955.34;10421514;28;20225;-66
2024/02/04 01:54:48;;;;;;;2.10;2.00;;;7.50;99.90;;;8.28;91.28;98954.28;10420762;28;20618;-63
2024/02/04 01:59:53;;;;;;;1.93;1.83;;;7.50;99.90;;;8.31;90.67;98952.00;10410535;28;20239;-64
2024/02/04 02:04:57;;;;;;;1.85;1.75;;;7.50;99.90;;;8.30;90.82;98943.47;10450506;28;20763;-64
2024/02/04 02:10:05;;;;;;;1.83;1.73;;;7.50;99.90;;;8.42;89.85;98940.19;10406971;28;20790;-64
2024/02/04 02:15:17;;;;;;;2.30;2.20;;;7.50;99.90;;;8.27;90.38;98953.41;10397837;28;21071;-64
2024/02/04 02:20:25;;;;;;;2.03;1.93;;;7.50;99.90;;;8.28;90.25;98962.81;10400223;28;20252;-64
2024/02/04 02:25:31;;;;;;;2.00;1.90;;;7.50;99.90;;;8.36;89.50;98948.19;10398677;28;20218;-64
2024/02/04 02:30:35;;;;;;;2.30;2.20;;;7.50;99.90;;;8.41;89.37;98952.00;10391198;28;20226;-64
2024/02/04 02:35:38;;;;;;;2.33;2.13;;;7.60;99.90;;;8.35;90.37;98966.75;10399945;28;20232;-64
2024/02/04 02:40:47;;;;;;;2.63;2.43;;;7.50;99.90;;;8.40;89.43;98965.53;10393721;28;20221;-64
2024/02/04 02:45:50;;;;;;;2.10;2.00;;;7.50;99.90;;;8.36;89.14;98958.38;10394358;28;20602;-64
2024/02/04 02:50:54;;;;;;;2.30;2.20;;;7.50;99.90;;;8.34;89.33;98954.81;10396257;28;20279;-65
2024/02/04 02:55:59;;;;;;;2.00;1.90;;;7.50;99.90;;;8.47;89.03;98957.66;10394991;28;20235;-64
2024/02/04 03:01:02;;;;;;;2.13;2.03;;;7.50;99.90;;;8.32;89.68;98951.22;10401512;28;20702;-65
2024/02/04 03:06:07;;;;;;;1.90;1.80;;;7.50;99.90;;;8.46;88.10;98966.03;10401469;28;20253;-65
2024/02/04 03:11:12;;;;;;;2.20;2.10;;;7.60;99.90;;;8.30;89.64;98965.50;10407124;28;20230;-65
2024/02/04 03:16:15;;;;;;;2.22;2.08;;;7.50;99.90;;;8.37;89.09;98960.16;10402792;28;20221;-64
2024/02/04 03:21:18;;;;;;;2.20;2.10;;;7.50;99.90;;;8.38;88.09;98941.53;10403086;28;20233;-64
2024/02/04 03:26:23;;;;;;;2.10;2.00;;;7.70;99.90;;;8.48;88.07;98944.13;10403571;28;20229;-65
2024/02/04 03:31:26;;;;;;;2.13;2.03;;;7.70;99.90;;;8.34;88.75;98952.25;10403366;28;20922;-64
2024/02/04 03:36:29;;;;;;;1.87;1.77;;;7.60;99.90;;;8.37;88.63;98943.97;10401144;28;20232;-65
2024/02/04 03:41:34;;;;;;;2.40;2.30;;;7.60;99.90;;;8.39;87.91;98951.03;10404549;28;20265;-65
2024/02/04 03:46:39;;;;;;;2.27;2.17;;;7.60;99.90;;;8.28;88.94;98959.38;10401913;28;20241;-65
2024/02/04 03:51:43;;;;;;;2.20;2.10;;;7.50;99.90;;;8.26;89.38;98951.59;10403327;28;20248;-64
2024/02/04 03:56:47;;;;;;;2.40;2.30;;;7.50;99.90;;;8.40;88.49;98954.47;10402793;28;20218;-64
2024/02/04 04:01:53;;;;;;;2.40;2.30;;;7.60;99.90;;;8.22;89.73;98943.59;10400287;28;20236;-64
2024/02/04 04:06:56;;;;;;;2.30;2.20;;;7.50;99.90;;;8.09;90.66;98939.13;10404804;28;20227;-64
2024/02/04 04:12:01;;;;;;;2.00;1.90;;;7.40;99.90;;;8.31;88.49;98939.28;10402624;28;20240;-64
2024/02/04 04:17:04;;;;;;;2.43;2.33;;;7.60;99.90;;;8.26;89.67;98949.06;10442843;28;20221;-65
2024/02/04 04:22:07;;;;;;;2.47;2.37;;;7.40;99.90;;;8.15;90.86;98954.03;10423938;28;20670;-64
2024/02/04 04:27:11;;;;;;;2.00;1.90;;;7.30;99.90;;;8.16;90.60;98943.97;10451969;28;20216;-65
2024/02/04 04:32:14;;;;;;;2.60;2.40;;;7.40;99.90;;;8.07;91.55;98943.22;10427213;28;20226;-65
2024/02/04 04:37:18;;;;;;;2.20;2.10;;;7.30;99.90;;;8.22;90.40;98953.78;10435901;28;20315;-65
2024/02/04 04:42:22;;;;;;;1.83;1.77;;;7.40;99.90;;;8.12;90.87;98952.09;10418184;28;20271;-64
2024/02/04 04:47:25;;;;;;;2.25;2.10;;;7.40;99.90;;;8.24;90.25;98957.34;10429137;28;20348;-64
2024/02/04 04:52:28;;;;;;;2.20;2.10;;;7.40;99.90;;;8.13;91.01;98954.78;10407515;28;20719;-64
2024/02/04 04:57:33;;;;;;;2.23;2.13;;;7.30;99.90;;;8.21;90.88;98952.91;10410447;28;20233;-64
2024/02/04 05:02:36;;;;;;;2.20;2.10;;;7.40;99.90;;;8.19;90.81;98954.41;10403321;28;20634;-64
2024/02/04 05:07:39;;;;;;;1.93;1.83;;;7.30;99.90;;;8.31;90.13;98949.47;10442580;28;20601;-65
2024/02/04 05:12:44;;;;;;;2.17;2.07;;;7.40;99.90;;;8.16;90.69;98954.16;10400734;28;20774;-64
2024/02/04 05:17:47;;;;;;;2.07;1.97;;;7.40;99.90;;;8.15;90.14;98943.84;10396664;28;20226;-65
2024/02/04 05:22:50;;;;;;;2.10;2.00;;;7.40;99.90;;;8.08;90.83;98950.97;10394555;28;20241;-64
2024/02/04 05:27:55;;;;;;;2.17;2.07;;;7.40;99.90;;;8.24;89.96;98949.69;10393261;28;20226;-64
2024/02/04 05:32:58;;;;;;;2.20;2.10;;;7.40;99.90;;;8.28;89.18;98950.09;10396241;28;20598;-64
2024/02/04 05:38:01;;;;;;;1.80;1.70;;;7.50;99.90;;;8.25;89.92;98949.84;10410737;28;20300;-64
2024/02/04 05:43:08;;;;;;;1.83;1.73;;;7.50;99.90;;;8.24;89.46;98942.06;10420966;28;20319;-64
2024/02/04 05:48:14;;;;;;;2.00;1.90;;;7.50;99.90;;;8.25;89.29;98956.59;10430758;28;20302;-65
2024/02/04 05:53:18;;;;;;;2.03;1.93;;;7.50;99.90;;;8.26;89.48;98960.91;10395938;28;20245;-65
2024/02/04 05:58:22;;;;;;;1.87;1.77;;;7.50;99.90;;;8.42;88.53;98969.09;10435651;28;20282;-65
2024/02/04 06:03:26;;;;;;;1.97;1.87;;;7.60;99.90;;;8.29;89.63;98979.00;10394846;28;20732;-64
2024/02/04 06:08:31;;;;;;;2.00;1.90;;;7.50;99.90;;;8.25;89.62;98971.88;10393186;28;20656;-64
2024/02/04 06:13:36;;;;;;;1.77;1.67;;;7.50;99.90;;;8.20;90.02;98965.50;10391954;28;20295;-64
2024/02/04 06:18:39;;;;;;;1.90;1.80;;;7.50;99.90;;;8.45;88.00;98959.16;10393869;28;20230;-64
2024/02/04 06:23:43;;;;;;;1.70;1.63;;;7.70;99.90;;;8.44;87.42;98962.50;10391661;28;20236;-64
2024/02/04 06:28:48;;;;;;;1.90;1.90;;;7.70;99.90;;;8.50;87.27;98967.22;10390318;28;20226;-64
2024/02/04 06:33:52;;;;;;;2.03;1.93;;;7.80;99.90;;;8.24;88.76;98964.97;10394529;28;20226;-65
2024/02/04 06:38:55;;;;;;;2.00;1.90;;;7.60;99.90;;;8.29;87.95;98964.59;10401330;28;20229;-64
2024/02/04 06:44:00;;;;;;;1.80;1.70;;;7.60;99.90;;;8.24;88.23;98973.53;10400480;28;20287;-65
2024/02/04 06:49:04;;;;;;;2.00;1.90;;;7.60;99.90;;;8.22;88.21;98985.22;10451097;28;20225;-64
2024/02/04 06:54:07;;;;;;;1.80;1.70;;;7.60;99.90;;;8.39;87.53;98976.50;10401408;28;20299;-64
2024/02/04 06:59:11;;;;;;;2.00;1.90;;;7.70;99.90;;;8.15;88.26;98987.13;10399393;28;20728;-64
2024/02/04 07:04:15;;;;;;;1.87;1.83;;;7.50;99.90;;;8.17;88.91;98980.50;10402746;28;20259;-65
2024/02/04 07:09:18;;;;;;;2.07;1.97;;;7.40;99.90;;;8.10;89.40;98987.63;10435334;28;20236;-65
2024/02/04 07:14:22;;;;;;;4.93;4.47;;;7.40;99.90;;;8.24;89.43;98985.34;10425955;28;20242;-64
2024/02/04 07:19:26;;;;;;;2.53;2.43;;;7.40;99.90;;;8.44;88.18;98975.22;10431833;28;20255;-65
2024/02/04 07:24:29;;;;;;;2.33;2.23;;;7.50;99.90;;;8.47;87.75;98962.75;10420521;28;20230;-65
2024/02/04 07:29:33;;;;;;;2.10;2.00;;;7.60;99.90;;;8.45;87.59;98956.63;10420264;28;20225;-65
2024/02/04 07:34:37;;;;;;;2.83;2.63;;;7.80;99.90;;;8.58;86.95;98958.50;10423845;28;20416;-65
2024/02/04 07:39:40;;;;;;;2.30;2.20;;;7.90;99.90;;;8.59;86.42;98947.56;10451289;28;20667;-65
2024/02/04 07:44:44;;;;;;;1.80;1.70;;;7.90;99.90;;;8.66;86.88;98948.97;10419708;28;20237;-66
2024/02/04 07:49:48;;;;;;;1.73;1.73;;;8.20;99.90;;;8.53;86.40;98953.06;10413415;28;20233;-65
2024/02/04 07:54:51;;;;;;;1.80;1.80;;;8.00;99.90;;;8.66;87.27;98948.97;10398994;28;20233;-65
2024/02/04 07:59:56;;;;;;;1.97;1.87;;;8.00;99.90;;;8.65;86.84;98927.69;10395123;28;20233;-65
2024/02/04 08:04:59;;;;;;;1.67;1.57;;;8.00;99.90;;;8.83;86.16;98923.19;10399149;28;20263;-65
2024/02/04 08:10:03;;;;;;;1.77;1.77;;;8.20;99.90;;;8.82;85.92;98915.44;10426545;28;20225;-70
2024/02/04 08:15:09;;;;;;;1.63;1.60;;;8.20;99.90;;;8.95;85.39;98916.50;10419589;28;20324;-66
2024/02/04 08:20:13;;;;;;;2.00;1.90;;;8.30;99.90;;;8.86;86.01;98918.31;10399291;28;20705;-66
2024/02/04 08:25:16;;;;;;;1.97;1.87;;;8.30;99.90;;;8.99;86.06;98920.22;10412724;28;20245;-66
2024/02/04 08:30:21;;;;;;;1.80;1.70;;;8.50;99.90;;;9.11;85.39;98917.75;10415243;28;20643;-66
2024/02/04 08:35:24;;;;;;;5.50;3.70;;;8.40;99.90;;;9.33;85.20;98921.25;10439563;28;20312;-65
2024/02/04 08:40:27;;;;;;;2.17;2.07;;;8.60;99.90;;;9.54;83.56;98918.59;10404548;28;20248;-66
2024/02/04 08:45:31;;;;;;;1.80;1.70;;;8.90;99.90;;;9.66;83.18;98925.53;10420681;28;20230;-66
2024/02/04 08:50:35;;;;;;;2.00;1.80;;;8.90;99.90;;;9.69;82.95;98932.53;10419750;28;20221;-66
2024/02/04 08:55:38;;;;;;;1.73;1.63;;;8.80;99.90;;;9.79;81.64;98934.16;10396279;28;20253;-66
2024/02/04 09:00:42;;;;;;;1.73;1.63;;;9.00;99.90;;;9.78;82.98;98940.91;10414477;28;20238;-65
2024/02/04 09:05:45;;;;;;;1.55;1.45;;;9.00;99.90;;;9.77;81.64;98934.03;10395537;28;20226;-65
2024/02/04 09:10:49;;;;;;;2.80;2.60;;;9.00;99.90;;;9.97;81.22;98937.22;10399798;28;20229;-66
2024/02/04 09:15:53;;;;;;;2.60;2.40;;;9.20;99.90;;;9.95;81.97;98934.53;10407889;28;20599;-65
2024/02/04 09:20:57;;;;;;;7.55;5.85;;;9.20;99.90;;;9.95;81.45;98929.44;10394182;28;20226;-66
2024/02/04 09:26:00;;;;;;;4.45;2.58;;;9.30;99.90;;;9.93;81.47;98934.44;10414889;28;20248;-65
2024/02/04 09:31:05;;;;;;;2.17;2.08;;;9.30;99.90;;;9.97;81.23;98942.34;10410518;28;20616;-65
2024/02/04 09:36:09;;;;;;;2.97;1.70;;;9.40;99.90;;;10.15;82.24;98943.72;10442709;28;20225;-67
2024/02/04 09:41:12;;;;;;;4.65;3.95;;;9.50;99.90;;;10.25;80.22;98951.34;10392450;28;20363;-66
2024/02/04 09:46:17;;;;;;;2.10;2.00;;;9.60;99.90;;;10.13;79.67;98945.31;10402119;28;20237;-66
2024/02/04 09:51:21;;;;;;;1.77;1.67;;;9.40;99.90;;;10.16;78.98;98945.53;10406636;28;20232;-65
2024/02/04 09:56:27;;;;;;;1.98;1.65;;;9.50;99.90;;;10.07;79.99;98953.38;10391746;28;20688;-64
2024/02/04 10:01:32;;;;;;;2.67;2.13;;;9.40;99.90;;;10.16;80.89;98945.53;10385260;28;1078116;-65
2024/02/04 10:06:35;;;;;;;1.70;1.60;;;9.50;99.90;;;10.26;79.20;98944.56;10389480;28;20540;-66
2024/02/04 10:11:39;;;;;;;1.92;1.80;;;9.60;99.90;;;10.08;80.09;98931.28;10389808;28;20232;-65
2024/02/04 10:16:44;;;;;;;1.75;1.75;;;9.40;99.90;;;10.03;79.51;98930.91;10390479;28;20226;-66
2024/02/04 10:21:47;;;;;;;2.00;1.75;;;9.40;99.90;;;10.01;80.84;98919.69;10390092;28;20238;-66
2024/02/04 10:26:50;;;;;;;1.45;1.45;;;9.30;99.90;;;10.10;78.94;98909.28;10390447;28;20245;-65
2024/02/04 10:31:57;;;;;;;1.30;1.20;;;9.50;99.90;;;10.09;79.67;98904.94;10409715;28;20229;-65
2024/02/04 10:37:00;;;;;;;3.30;3.00;;;9.60;99.90;;;10.10;80.57;98904.16;10405137;28;20743;-66
2024/02/04 10:42:04;;;;;;;1.63;1.52;;;9.50;99.90;;;10.09;81.02;98900.72;10412589;28;20483;-66
2024/02/04 10:47:11;;;;;;;1.83;1.73;;;9.50;99.90;;;10.14;79.33;98899.41;10406766;28;20228;-66
2024/02/04 10:52:15;;;;;;;1.75;1.73;;;9.60;99.90;;;10.16;79.83;98904.66;10418819;28;20229;-65
2024/02/04 10:57:22;;;;;;;1.88;1.77;;;9.70;99.90;;;10.13;79.81;98894.22;10397051;28;20265;-65
2024/02/04 11:02:28;;;;;;;1.75;1.55;;;9.50;99.90;;;10.12;80.05;98884.75;10417901;28;20233;-66
2024/02/04 11:07:34;;;;;;;2.05;1.98;;;9.40;99.90;;;10.07;80.78;98871.66;10419790;28;20231;-65
2024/02/04 11:12:40;;;;;;;1.95;1.50;;;9.40;99.90;;;10.04;80.11;98856.06;10412719;28;20624;-65
2024/02/04 11:18:12;;;;;;;1.70;1.60;;;9.50;99.90;;;10.10;80.93;98870.97;10417769;28;20271;-65
2024/02/04 11:23:32;;;;;;;2.05;1.95;;;9.60;99.90;;;10.23;80.54;98868.56;10442218;28;20226;-65
2024/02/04 11:28:36;;;;;;;2.10;2.00;;;9.40;99.90;;;10.05;81.33;98859.53;10424269;28;20218;-66
2024/02/04 11:33:41;;;;;;;1.80;1.70;;;9.50;99.90;;;10.28;79.88;98854.50;10404459;28;20237;-65
2024/02/04 11:38:44;;;;;;;1.83;1.73;;;9.60;99.90;;;10.22;79.36;98856.56;10409135;28;20237;-66
2024/02/04 11:43:47;;;;;;;2.15;1.60;;;9.70;99.90;;;10.17;81.37;98859.56;10424704;28;20247;-66
2024/02/04 11:48:55;;;;;;;2.42;1.60;;;9.60;99.90;;;10.25;79.62;98856.78;10458565;28;20279;-66
2024/02/04 11:54:01;;;;;;;2.25;1.70;;;9.80;99.90;;;10.12;81.68;98856.66;10439344;28;20229;-65
2024/02/04 11:59:05;;;;;;;1.80;1.70;;;9.50;99.90;;;10.23;80.40;98839.56;10408543;28;20601;-65
2024/02/04 12:04:16;;;;;;;1.70;1.60;;;9.60;99.90;;;10.39;81.37;98832.31;10429778;28;20221;-66
2024/02/04 12:09:19;;;;;;;1.30;1.20;;;9.50;99.90;;;10.44;80.77;98824.94;10404000;28;20556;-65
2024/02/04 12:14:23;;;;;;;1.50;1.40;;;9.70;99.90;;;10.36;80.48;98807.41;10408876;28;20602;-66
2024/02/04 12:19:28;;;;;;;1.40;1.40;;;9.60;99.90;;;10.37;81.89;98798.94;10410484;28;20735;-65
2024/02/04 12:24:31;;;;;;;1.73;1.63;;;9.60;99.90;;;10.48;80.04;98796.28;10420165;28;20299;-66
2024/02/04 12:29:34;;;;;;;1.60;1.50;;;9.80;99.90;;;10.45;79.98;98773.97;10397821;28;20229;-66
2024/02/04 12:34:40;;;;;;;1.60;1.50;;;9.70;99.90;;;10.48;81.25;98770.75;10395640;28;20663;-66
2024/02/04 12:39:44;;;;;;;2.00;1.73;;;9.70;99.90;;;10.62;80.98;98779.41;10398817;28;20317;-66
2024/02/04 12:44:48;;;;;;;1.98;1.80;;;9.90;99.90;;;10.77;80.22;98790.72;10404600;28;20234;-66
2024/02/04 12:49:52;;;;;;;1.80;1.70;;;9.90;99.90;;;10.57;80.60;98771.41;10401320;28;20226;-66
2024/02/04 12:54:56;;;;;;;1.85;1.75;;;9.90;99.90;;;10.97;80.02;98762.31;10398198;28;20264;-66
2024/02/04 13:00:08;;;;;;;1.60;1.50;;;10.00;99.90;;;10.98;80.12;98747.84;10399162;28;20229;-66
2024/02/04 13:05:24;;;;;;;1.70;1.70;;;10.10;99.90;;;11.01;79.49;98742.94;10401522;28;20225;-66
2024/02/04 13:10:28;;;;;;;2.38;1.83;;;10.30;99.90;;;11.08;79.41;98747.72;10416028;28;20730;-66
2024/02/04 13:15:33;;;;;;;1.80;1.70;;;10.40;99.90;;;11.17;79.06;98743.22;10413796;28;20235;-66
2024/02/04 13:20:38;;;;;;;1.67;1.40;;;10.40;99.90;;;11.23;80.89;98750.44;10414066;28;20229;-66
2024/02/04 13:25:41;;;;;;;2.13;2.00;;;10.40;99.90;;;11.19;81.30;98736.56;10403703;28;20749;-66
2024/02/04 13:30:44;;;;;;;1.83;1.73;;;10.40;99.90;;;11.28;81.23;98716.72;10391145;28;20231;-66
2024/02/04 13:35:49;;;;;;;2.05;1.95;;;10.50;99.90;;;11.36;81.17;98724.91;10385027;28;20237;-66
2024/02/04 13:40:54;;;;;;;1.40;1.40;;;10.60;99.90;;;11.53;80.55;98738.81;10385910;28;20367;-66
2024/02/04 13:45:58;;;;;;;1.40;1.40;;;10.70;99.90;;;11.60;80.28;98714.53;10389435;28;20807;-66
2024/02/04 13:51:02;;;;;;;1.63;1.52;;;10.80;99.90;;;11.66;79.74;98720.94;10403046;28;20237;-67
2024/02/04 13:56:06;;;;;;;1.70;1.60;;;10.80;99.90;;;11.48;80.41;98732.53;10406014;28;20235;-67
2024/02/04 14:01:09;;;;;;;2.25;2.00;;;10.70;99.90;;;11.60;80.20;98730.78;10409974;28;20248;-66
2024/02/04 14:06:14;;;;;;;1.30;1.30;;;10.80;99.90;;;11.71;79.45;98732.38;10394487;28;20226;-67
2024/02/04 14:11:18;;;;;;;1.83;1.73;;;11.00;99.90;;;11.69;79.70;98726.28;10415554;28;20304;-66
2024/02/04 14:16:21;;;;;;;1.25;1.25;;;11.00;99.90;;;11.67;80.01;98732.06;10424062;28;20220;-66
2024/02/04 14:21:26;;;;;;;2.00;1.90;;;10.90;99.90;;;11.63;80.61;98741.22;10447959;28;20268;-67
2024/02/04 14:26:29;;;;;;;2.10;2.00;;;10.90;99.90;;;11.86;78.94;98731.66;10420314;28;20222;-66
2024/02/04 14:31:32;;;;;;;1.58;1.52;;;11.10;99.90;;;11.65;79.65;98742.22;10394506;28;20238;-67
2024/02/04 14:36:37;;;;;;;2.05;1.95;;;10.90;99.90;;;11.68;80.65;98745.00;10392827;28;20221;-66
2024/02/04 14:41:40;;;;;;;2.90;2.70;;;10.90;99.90;;;11.88;78.96;98763.41;10391806;28;20347;-65
2024/02/04 14:46:45;;;;;;;2.38;2.28;;;11.00;99.90;;;11.67;80.39;98767.91;10390922;28;20588;-66
2024/02/04 14:51:50;;;;;;;1.90;1.80;;;10.90;99.90;;;11.56;80.62;98774.91;10403507;28;20241;-67
2024/02/04 14:56:53;;;;;;;1.20;1.20;;;10.80;99.90;;;11.64;80.05;98760.91;10398901;28;20593;-66
2024/02/04 15:01:56;;;;;;;1.52;1.42;;;10.80;99.90;;;11.41;81.24;98773.84;10424957;28;20702;-66
2024/02/04 15:07:03;;;;;;;1.25;1.25;;;10.70;99.90;;;11.30;82.00;98773.09;10405209;28;20225;-66
2024/02/04 15:12:07;;;;;;;1.80;1.70;;;10.60;99.90;;;11.27;82.10;98771.25;10394721;28;20918;-66
2024/02/04 15:17:11;;;;;;;2.78;2.67;;;10.50;99.90;;;11.26;82.47;98778.81;10397482;28;20226;-66
2024/02/04 15:22:17;;;;;;;2.20;2.10;;;10.50;99.90;;;11.39;81.95;98770.28;10418702;28;20237;-66
2024/02/04 15:27:22;;;;;;;2.08;1.90;;;10.50;99.90;;;11.20;82.91;98769.03;10437386;28;20294;-66
2024/02/04 15:32:26;;;;;;;1.83;1.73;;;10.40;99.90;;;11.25;81.61;98767.69;10438908;28;20251;-66
2024/02/04 15:37:30;;;;;;;1.42;1.42;;;10.40;99.90;;;11.41;80.96;98773.84;10440009;28;20231;-66
2024/02/04 15:42:34;;;;;;;2.22;2.13;;;10.50;99.90;;;11.41;80.47;98766.16;10435646;28;20263;-66
2024/02/04 15:47:45;;;;;;;1.75;1.67;;;10.50;99.90;;;11.20;81.95;98775.81;10431872;28;20235;-66
2024/02/04 15:52:51;;;;;;;2.42;2.33;;;10.30;99.90;;;11.17;81.06;98761.13;10441442;28;20649;-66
2024/02/04 15:57:56;;;;;;;3.13;2.65;;;10.40;99.90;;;11.18;80.98;98774.81;10443988;28;20239;-66
2024/02/04 16:03:00;;;;;;;2.97;2.67;;;10.40;99.90;;;11.16;81.67;98774.72;10439904;28;20233;-66
2024/02/04 16:08:06;;;;;;;6.00;5.15;;;10.30;99.90;;;10.96;82.48;98774.97;10443609;28;20233;-66
2024/02/04 16:13:10;;;;;;;3.00;2.55;;;10.20;99.90;;;10.99;82.64;98775.22;10438181;28;20610;-65
2024/02/04 16:18:15;;;;;;;9.00;6.65;;;10.10;99.90;;;11.04;82.58;98773.84;10439036;28;20306;-66
2024/02/04 16:23:20;;;;;;;7.38;6.78;;;10.10;99.90;;;11.01;82.16;98765.97;10418796;28;20234;-66
2024/02/04 16:28:23;;;;;;;3.95;3.65;;;10.20;99.90;;;10.93;82.52;98764.53;10390113;28;20234;-66
2024/02/04 16:33:27;;;;;;;1.90;1.80;;;10.10;99.90;;;10.92;82.70;98776.44;10404745;28;20256;-66
2024/02/04 16:38:31;;;;;;;2.45;2.35;;;10.20;99.90;;;10.86;82.46;98780.25;10401618;28;20942;-66
2024/02/04 16:43:35;;;;;;;8.80;7.95;;;10.10;99.90;;;10.65;84.16;98783.06;10397920;28;20626;-66
2024/02/04 16:48:38;;;;;;;2.33;2.22;;;9.90;99.90;;;10.66;83.98;98789.94;10382309;28;20236;-66
2024/02/04 16:53:43;;;;;;;2.22;2.13;;;9.90;99.90;;;10.76;82.57;98792.38;10392626;28;20240;-66
2024/02/04 16:58:46;;;;;;;2.20;2.10;;;10.00;99.90;;;10.76;83.51;98796.63;10380134;28;20372;-65
2024/02/04 17:03:50;;;;;;;1.90;1.80;;;9.90;99.90;;;10.74;83.59;98798.16;10392403;28;20610;-65
2024/02/04 17:08:56;;;;;;;3.03;2.83;;;9.90;99.90;;;10.53;83.57;98790.75;10399772;28;20229;-65
2024/02/04 17:14:00;;;;;;;1.83;1.73;;;9.80;99.90;;;10.56;83.41;98795.19;10402658;28;21507;-65
2024/02/04 17:19:14;;;;;;;2.80;2.60;;;9.80;99.90;;;10.55;84.59;98793.38;10424940;28;20256;-65
2024/02/04 17:24:26;;;;;;;3.30;2.90;;;9.80;99.90;;;10.47;84.57;98794.50;10398568;28;20230;-66
2024/02/04 17:29:30;;;;;;;1.95;1.85;;;9.70;99.90;;;10.59;83.50;98798.84;10411014;28;20731;-66
2024/02/04 17:34:34;;;;;;;3.00;2.83;;;9.70;99.90;;;10.56;83.80;98797.75;10387249;28;20531;-66
2024/02/04 17:39:40;;;;;;;2.25;2.15;;;9.70;99.90;;;10.50;84.67;98799.84;10396163;28;20267;-66
2024/02/04 17:44:43;;;;;;;2.33;2.22;;;9.70;99.90;;;10.50;83.55;98804.94;10403994;28;20221;-66
2024/02/04 17:49:47;;;;;;;2.22;2.13;;;9.80;99.90;;;10.62;84.39;98810.97;10398786;28;20236;-66
2024/02/04 17:54:53;;;;;;;1.92;1.75;;;9.70;99.90;;;10.52;84.43;98795.72;10401076;28;20698;-65
2024/02/04 17:59:56;;;;;;;2.90;2.70;;;9.70;99.90;;;10.53;84.45;98784.72;10415768;28;20228;-66
2024/02/04 18:05:00;;;;;;;2.15;2.05;;;9.70;99.90;;;10.42;83.78;98786.53;10385570;28;20232;-66
2024/02/04 18:10:07;;;;;;;2.33;2.13;;;9.60;99.90;;;10.44;84.81;98789.16;10387784;28;20829;-65
2024/02/04 18:15:13;;;;;;;2.97;2.78;;;9.60;99.90;;;10.52;84.23;98788.94;10401034;28;20260;-66
2024/02/04 18:20:16;;;;;;;2.30;2.10;;;9.80;99.90;;;10.40;84.88;98792.28;10383169;28;20225;-66
2024/02/04 18:25:21;;;;;;;2.90;2.70;;;9.60;99.90;;;10.46;84.35;98785.94;10387839;28;20234;-66
2024/02/04 18:30:24;;;;;;;17.80;12.02;;;9.60;99.90;;;10.46;84.91;98783.38;10381776;28;20233;-66
2024/02/04 18:35:27;;;;;;;14.43;12.45;;;9.60;99.90;;;10.51;84.75;98779.50;10383622;28;20236;-66
2024/02/04 18:40:32;;;;;;;13.30;12.00;;;9.70;99.90;;;10.25;85.60;98787.81;10388099;28;20253;-66
2024/02/04 18:45:39;;;;;;;6.10;5.63;;;9.60;99.90;;;10.33;84.69;98791.84;10391261;28;20241;-65
2024/02/04 18:50:42;;;;;;;3.38;3.17;;;9.80;99.90;;;10.40;83.97;98788.06;10418894;28;20742;-66
2024/02/04 18:55:48;;;;;;;3.28;3.08;;;9.80;99.90;;;10.35;84.44;98800.50;10417207;28;20778;-66
2024/02/04 19:00:54;;;;;;;2.45;2.25;;;9.50;99.90;;;10.32;84.35;98794.28;10423526;28;20229;-66
2024/02/04 19:05:57;;;;;;;5.25;4.57;;;9.60;99.90;;;10.34;83.88;98793.63;10416326;28;20366;-66
2024/02/04 19:11:03;;;;;;;2.45;2.25;;;9.70;99.90;;;10.18;84.11;98793.22;10388142;28;20597;-65
2024/02/04 19:16:06;;;;;;;3.13;2.60;;;9.60;99.90;;;10.19;84.16;98791.56;10383559;28;20225;-65
2024/02/04 19:21:09;;;;;;;4.90;4.50;;;9.70;99.90;;;10.16;84.60;98792.25;10387929;28;20613;-65
2024/02/04 19:26:15;;;;;;;4.88;2.95;;;9.80;99.90;;;10.09;85.16;98800.22;10426431;28;20240;-66
2024/02/04 19:31:18;;;;;;;2.55;2.42;;;9.40;99.90;;;10.05;84.54;98794.00;10420410;28;20283;-65
2024/02/04 19:36:22;;;;;;;2.15;2.05;;;9.30;99.90;;;10.03;84.60;98797.22;10390512;28;20229;-65
2024/02/04 19:41:28;;;;;;;2.53;2.38;;;9.40;99.90;;;10.02;84.99;98796.34;10391763;28;20248;-65
2024/02/04 19:46:31;;;;;;;4.10;3.80;;;9.60;99.90;;;9.85;86.24;98801.84;10393735;28;20313;-66
2024/02/04 19:51:34;;;;;;;4.20;3.90;;;9.30;99.90;;;9.91;85.96;98792.97;10397542;28;20237;-65
2024/02/04 19:56:39;;;;;;;3.38;3.17;;;9.30;99.90;;;9.89;85.78;98791.09;10401167;28;20236;-65
2024/02/04 20:01:44;;;;;;;3.13;2.92;;;9.40;99.90;;;9.89;86.01;98785.97;10401362;28;21284;-65
2024/02/04 20:06:47;;;;;;;2.85;2.75;;;9.40;99.90;;;9.92;85.78;98771.75;10401286;28;20349;-66
2024/02/04 20:11:51;;;;;;;2.17;2.08;;;9.40;99.90;;;9.93;85.10;98767.56;10403034;28;20233;-66
2024/02/04 20:16:55;;;;;;;2.47;2.38;;;9.40;99.90;;;9.86;85.70;98766.19;10399174;28;20229;-66
2024/02/04 20:21:58;;;;;;;2.15;2.05;;;9.30;99.90;;;9.84;84.82;98757.56;10416506;28;20237;-65
2024/02/04 20:27:03;;;;;;;2.25;2.15;;;9.30;99.90;;;9.74;86.60;98755.09;10392598;28;20283;-66
2024/02/04 20:32:07;;;;;;;2.10;2.00;;;9.30;99.90;;;9.71;85.84;98754.84;10397960;28;20688;-66
2024/02/04 20:37:10;;;;;;;2.15;2.05;;;9.10;99.90;;;9.69;86.28;98741.09;10419284;28;20227;-65
2024/02/04 20:42:15;;;;;;;2.33;2.22;;;9.20;99.90;;;9.66;86.10;98740.84;10420670;28;20229;-65
2024/02/04 20:47:18;;;;;;;2.55;2.45;;;9.20;99.90;;;9.64;86.98;98748.41;10420807;28;20235;-66
2024/02/04 20:52:21;;;;;;;3.13;2.90;;;9.00;99.90;;;9.69;85.58;98746.19;10399233;28;20603;-65
2024/02/04 20:57:26;;;;;;;124.28;63.67;;;9.00;99.90;;;9.62;86.49;98755.06;10396876;28;20226;-65
2024/02/04 21:02:30;;;;;;;35.22;20.77;;;8.90;99.90;;;9.68;85.98;98741.88;10400867;28;20244;-66
2024/02/04 21:07:33;;;;;;;25.75;18.95;;;8.90;99.90;;;9.65;86.27;98733.97;10395724;28;20311;-65
2024/02/04 21:12:38;;;;;;;51.33;46.53;;;8.90;99.90;;;9.54;86.00;98742.50;10394369;28;20630;-66
2024/02/04 21:17:41;;;;;;;8.05;6.10;;;8.90;99.90;;;9.48;86.14;98746.38;10391939;28;20272;-66
2024/02/04 21:22:45;;;;;;;13.83;12.83;;;8.80;99.90;;;9.56;86.64;98751.16;10391897;28;20686;-66